createdAt,value
2023-03-06T00:02:10.125Z,99389.22
2023-03-06T00:05:26.887Z,99398.50
2023-03-06T00:08:42.029Z,99389.94
2023-03-06T00:11:59.694Z,99388.78
2023-03-06T00:15:18.741Z,99395.34
2023-03-06T00:18:36.887Z,99398.66
2023-03-06T00:21:56.250Z,99403.66
2023-03-06T00:25:15.148Z,99401.84
2023-03-06T00:28:17.926Z,99392.41
2023-03-06T00:31:19.976Z,99403.47
2023-03-06T00:34:22.073Z,99402.56
2023-03-06T00:37:25.322Z,99404.25
2023-03-06T00:40:27.749Z,99397.16
2023-03-06T00:43:29.910Z,99397.16
2023-03-06T00:46:32.198Z,99402.38
2023-03-06T00:49:34.891Z,99389.41
2023-03-06T00:52:37.677Z,99383.22
2023-03-06T00:55:39.820Z,99378.72
2023-03-06T00:58:41.890Z,99383.94
2023-03-06T01:01:43.996Z,99380.50
2023-03-06T01:04:46.276Z,99379.09
2023-03-06T01:07:48.462Z,99373.28
2023-03-06T01:10:50.531Z,99368.94
2023-03-06T01:13:52.631Z,99372.31
2023-03-06T01:16:54.897Z,99355.41
2023-03-06T01:19:58.073Z,99360.09
2023-03-06T01:23:00.133Z,99342.94
2023-03-06T01:26:02.294Z,99347.06
2023-03-06T01:29:04.364Z,99349.91
2023-03-06T01:32:06.680Z,99347.31
2023-03-06T01:35:09.485Z,99340.56
2023-03-06T01:38:11.552Z,99344.75
2023-03-06T01:41:15.937Z,99324.00
2023-03-06T01:44:18.126Z,99331.47
2023-03-06T01:47:20.097Z,99326.97
2023-03-06T01:50:22.264Z,99319.91
2023-03-06T01:53:24.574Z,99319.75
2023-03-06T01:56:26.899Z,99316.00
2023-03-06T01:59:30.252Z,99314.84
2023-03-06T02:02:33.027Z,99310.38
2023-03-06T02:05:35.975Z,99315.53
2023-03-06T02:08:38.803Z,99312.12
2023-03-06T02:11:44.169Z,99309.63
2023-03-06T02:14:47.649Z,99307.91
2023-03-06T02:17:51.576Z,99303.56
2023-03-06T02:20:56.149Z,99290.03
2023-03-06T02:23:58.082Z,99291.47
2023-03-06T02:27:02.938Z,99291.38
2023-03-06T02:30:10.238Z,99292.16
2023-03-06T02:33:15.361Z,99288.75
2023-03-06T02:36:17.525Z,99282.56
2023-03-06T02:39:23.992Z,99281.81
2023-03-06T02:42:29.053Z,99282.56
2023-03-06T02:45:39.567Z,99275.59
2023-03-06T02:48:41.808Z,99277.34
2023-03-06T02:51:44.708Z,99280.94
2023-03-06T02:54:46.805Z,99276.78
2023-03-06T02:57:49.057Z,99277.44
2023-03-06T03:00:51.363Z,99277.50
2023-03-06T03:03:53.424Z,99266.59
2023-03-06T03:06:55.488Z,99268.31
2023-03-06T03:09:57.676Z,99273.53
2023-03-06T03:12:59.931Z,99268.31
2023-03-06T03:16:07.773Z,99260.75
2023-03-06T03:19:10.069Z,99269.28
2023-03-06T03:22:12.255Z,99263.13
2023-03-06T03:25:14.642Z,99265.75
2023-03-06T03:28:16.800Z,99266.94
2023-03-06T03:31:19.011Z,99266.97
2023-03-06T03:34:21.120Z,99265.38
2023-03-06T03:37:23.362Z,99261.84
2023-03-06T03:40:25.527Z,99254.06
2023-03-06T03:43:27.629Z,99249.84
2023-03-06T03:46:29.693Z,99253.22
2023-03-06T03:49:32.140Z,99246.09
2023-03-06T03:52:34.284Z,99250.34
2023-03-06T03:55:36.794Z,99249.75
2023-03-06T03:58:39.659Z,99248.91
2023-03-06T04:01:41.771Z,99253.34
2023-03-06T04:04:43.869Z,99247.97
2023-03-06T04:07:45.965Z,99241.81
2023-03-06T04:10:48.093Z,99231.47
2023-03-06T04:13:50.188Z,99232.09
2023-03-06T04:16:52.229Z,99232.88
2023-03-06T04:19:54.380Z,99231.00
2023-03-06T04:22:56.434Z,99229.09
2023-03-06T04:25:58.578Z,99222.19
2023-03-06T04:29:00.942Z,99227.53
2023-03-06T04:32:03.369Z,99225.78
2023-03-06T04:35:05.976Z,99227.28
2023-03-06T04:38:08.020Z,99226.31
2023-03-06T04:41:10.039Z,99222.78
2023-03-06T04:44:11.996Z,99201.19
2023-03-06T04:47:14.012Z,99202.88
2023-03-06T04:50:17.620Z,99202.03
2023-03-06T04:53:21.454Z,99198.59
2023-03-06T04:56:23.447Z,99188.91
2023-03-06T04:59:25.838Z,99193.25
2023-03-06T05:02:28.210Z,99192.91
2023-03-06T05:05:30.345Z,99185.81
2023-03-06T05:08:32.499Z,99188.69
2023-03-06T05:11:34.816Z,99189.84
2023-03-06T05:14:36.902Z,99189.06
2023-03-06T05:17:39.536Z,99183.97
2023-03-06T05:20:41.619Z,99187.63
2023-03-06T05:23:43.707Z,99188.16
2023-03-06T05:26:45.710Z,99184.06
2023-03-06T05:29:47.743Z,99177.97
2023-03-06T05:32:50.663Z,99176.03
2023-03-06T05:35:52.976Z,99176.75
2023-03-06T05:38:55.414Z,99182.94
2023-03-06T05:41:57.508Z,99180.44
2023-03-06T05:44:59.538Z,99178.91
2023-03-06T05:48:01.785Z,99181.50
2023-03-06T05:51:05.058Z,99184.31
2023-03-06T05:54:07.080Z,99188.53
2023-03-06T05:57:09.320Z,99184.06
2023-03-06T06:00:13.143Z,99190.75
2023-03-06T06:03:15.352Z,99190.63
2023-03-06T06:06:18.071Z,99190.88
2023-03-06T06:09:22.155Z,99197.59
2023-03-06T06:12:24.456Z,99196.69
2023-03-06T06:15:28.934Z,99187.94
2023-03-06T06:18:30.959Z,99181.38
2023-03-06T06:21:33.027Z,99176.34
2023-03-06T06:24:35.398Z,99183.84
2023-03-06T06:27:37.366Z,99175.12
2023-03-06T06:30:39.499Z,99169.78
2023-03-06T06:33:41.881Z,99173.81
2023-03-06T06:36:44.198Z,99182.34
2023-03-06T06:39:46.698Z,99180.19
2023-03-06T06:42:48.832Z,99185.16
2023-03-06T06:45:51.158Z,99182.16
2023-03-06T06:48:56.367Z,99190.53
2023-03-06T06:51:58.888Z,99182.94
2023-03-06T06:55:00.834Z,99174.84
2023-03-06T06:58:02.828Z,99178.44
2023-03-06T07:01:06.971Z,99181.66
2023-03-06T07:04:12.519Z,99185.59
2023-03-06T07:07:14.623Z,99190.53
2023-03-06T07:10:18.898Z,99175.50
2023-03-06T07:13:22.118Z,99189.38
2023-03-06T07:16:24.162Z,99194.06
2023-03-06T07:19:26.417Z,99202.00
2023-03-06T07:22:32.001Z,99202.97
2023-03-06T07:25:38.044Z,99204.09
2023-03-06T07:28:51.886Z,99202.81
2023-03-06T07:31:55.152Z,99198.09
2023-03-06T07:35:17.151Z,99180.06
2023-03-06T07:38:19.971Z,99189.50
2023-03-06T07:41:22.802Z,99191.19
2023-03-06T07:44:24.909Z,99193.72
2023-03-06T07:47:26.934Z,99187.47
2023-03-06T07:50:29.062Z,99183.28
2023-03-06T07:53:31.689Z,99186.44
2023-03-06T07:56:35.193Z,99196.28
2023-03-06T07:59:37.242Z,99193.59
2023-03-06T08:02:40.634Z,99194.81
2023-03-06T08:05:43.430Z,99197.38
2023-03-06T08:08:46.995Z,99190.41
2023-03-06T08:11:49.581Z,99188.00
2023-03-06T08:14:51.605Z,99180.81
2023-03-06T08:17:53.891Z,99177.31
2023-03-06T08:21:17.288Z,99173.16
2023-03-06T08:24:19.586Z,99175.59
2023-03-06T08:27:21.609Z,99173.25
2023-03-06T08:30:23.912Z,99176.13
2023-03-06T08:33:26.785Z,99170.09
2023-03-06T08:36:28.988Z,99164.56
2023-03-06T08:39:31.259Z,99154.97
2023-03-06T08:42:33.395Z,99155.28
2023-03-06T08:45:35.697Z,99161.31
2023-03-06T08:48:38.516Z,99166.66
2023-03-06T08:51:41.031Z,99155.78
2023-03-06T08:54:43.242Z,99148.59
2023-03-06T08:57:45.792Z,99163.47
2023-03-06T09:00:47.973Z,99159.50
2023-03-06T09:03:51.358Z,99159.84
2023-03-06T09:06:55.456Z,99169.31
2023-03-06T09:09:58.481Z,99151.81
2023-03-06T09:13:00.709Z,99148.31
2023-03-06T09:16:02.816Z,99141.78
2023-03-06T09:19:05.127Z,99136.31
2023-03-06T09:22:07.306Z,99123.38
2023-03-06T09:25:11.214Z,99124.91
2023-03-06T09:28:13.321Z,99125.63
2023-03-06T09:31:18.593Z,99114.84
2023-03-06T09:34:21.025Z,99118.22
2023-03-06T09:37:23.197Z,99125.81
2023-03-06T09:40:39.163Z,99125.91
2023-03-06T09:43:45.761Z,99111.09
2023-03-06T09:47:25.379Z,99113.72
2023-03-06T09:50:41.990Z,99109.41
2023-03-06T09:54:14.326Z,99103.31
2023-03-06T09:57:26.829Z,99100.56
2023-03-06T10:00:37.654Z,99105.88
2023-03-06T10:03:54.599Z,99112.34
2023-03-06T10:07:01.642Z,99108.87
2023-03-06T10:10:10.660Z,99100.56
2023-03-06T10:13:41.077Z,99099.06
2023-03-06T10:16:43.112Z,99099.31
2023-03-06T10:19:47.798Z,99093.94
2023-03-06T10:23:03.172Z,99085.13
2023-03-06T10:26:22.784Z,99086.81
2023-03-06T10:30:03.396Z,99083.16
2023-03-06T10:33:50.963Z,99084.41
2023-03-06T10:36:53.005Z,99077.75
2023-03-06T10:40:28.435Z,99080.59
2023-03-06T10:43:30.887Z,99053.75
2023-03-06T10:46:45.149Z,99059.53
2023-03-06T10:49:59.015Z,99061.97
2023-03-06T10:53:07.213Z,99050.13
2023-03-06T10:56:09.902Z,99051.31
2023-03-06T10:59:11.875Z,99045.66
2023-03-06T11:02:26.147Z,99050.19
2023-03-06T11:05:28.207Z,99036.00
2023-03-06T11:08:31.558Z,99034.25
2023-03-06T11:11:37.749Z,99019.22
2023-03-06T11:14:40.127Z,99023.13
2023-03-06T11:17:56.202Z,99016.44
2023-03-06T11:20:58.573Z,99010.41
2023-03-06T11:24:19.899Z,99001.03
2023-03-06T11:27:36.346Z,98997.88
2023-03-06T11:30:46.395Z,98990.69
2023-03-06T11:33:57.467Z,98982.66
2023-03-06T11:37:07.232Z,98983.97
2023-03-06T11:40:09.533Z,98987.50
2023-03-06T11:43:30.372Z,98985.88
2023-03-06T11:46:39.909Z,98977.13
2023-03-06T11:49:46.985Z,98976.75
2023-03-06T11:53:01.598Z,98970.75
2023-03-06T11:56:18.614Z,98967.25
2023-03-06T11:59:20.656Z,98955.63
2023-03-06T12:02:33.610Z,98950.59
2023-03-06T12:06:03.905Z,98937.75
2023-03-06T12:09:14.685Z,98925.44
2023-03-06T12:12:25.754Z,98923.09
2023-03-06T12:15:46.099Z,98917.56
2023-03-06T12:19:16.364Z,98912.84
2023-03-06T12:22:36.336Z,98907.25
2023-03-06T12:25:42.022Z,98901.44
2023-03-06T12:29:09.847Z,98881.59
2023-03-06T12:32:25.314Z,98898.50
2023-03-06T12:35:42.466Z,98893.34
2023-03-06T12:38:56.497Z,98900.41
2023-03-06T12:42:11.511Z,98889.75
2023-03-06T12:45:34.017Z,98896.94
2023-03-06T12:48:37.538Z,98891.78
2023-03-06T12:51:40.427Z,98903.53
2023-03-06T12:54:42.689Z,98896.56
2023-03-06T12:57:45.847Z,98892.03
2023-03-06T13:01:35.934Z,98900.53
2023-03-06T13:05:00.434Z,98896.13
2023-03-06T13:08:17.482Z,98892.50
2023-03-06T13:11:47.094Z,98890.09
2023-03-06T13:14:54.637Z,98897.78
2023-03-06T13:17:57.723Z,98887.59
2023-03-06T13:21:00.065Z,98879.06
2023-03-06T13:24:06.123Z,98883.41
2023-03-06T13:27:11.362Z,98885.91
2023-03-06T13:30:43.623Z,98874.63
2023-03-06T13:33:45.627Z,98879.63
2023-03-06T13:36:47.768Z,98876.91
2023-03-06T13:40:10.197Z,98869.81
2023-03-06T13:43:21.540Z,98867.44
2023-03-06T13:46:26.100Z,98862.75
2023-03-06T13:49:29.513Z,98861.56
2023-03-06T13:52:44.628Z,98860.47
2023-03-06T13:56:05.078Z,98852.53
2023-03-06T13:59:56.993Z,98858.81
2023-03-06T14:03:40.813Z,98853.38
2023-03-06T14:07:03.226Z,98853.03
2023-03-06T14:10:20.157Z,98847.50
2023-03-06T14:13:45.246Z,98854.34
2023-03-06T14:16:51.080Z,98851.22
2023-03-06T14:19:53.901Z,98844.25
2023-03-06T14:23:21.120Z,98841.00
2023-03-06T14:26:26.367Z,98836.84
2023-03-06T14:29:30.393Z,98838.50
2023-03-06T14:32:33.008Z,98827.31
2023-03-06T14:35:34.986Z,98833.09
2023-03-06T14:38:43.939Z,98827.84
2023-03-06T14:41:46.251Z,98831.06
2023-03-06T14:44:50.154Z,98828.94
2023-03-06T14:47:53.236Z,98820.50
2023-03-06T14:50:58.460Z,98820.28
2023-03-06T14:54:02.683Z,98816.69
2023-03-06T14:57:14.562Z,98821.25
2023-03-06T15:00:21.284Z,98821.38
2023-03-06T15:03:33.967Z,98821.72
2023-03-06T15:06:41.490Z,98825.94
2023-03-06T15:09:47.877Z,98826.03
2023-03-06T15:12:49.939Z,98819.56
2023-03-06T15:16:04.552Z,98812.03
2023-03-06T15:19:18.849Z,98820.41
2023-03-06T15:22:25.566Z,98820.88
2023-03-06T15:25:32.683Z,98825.31
2023-03-06T15:28:38.696Z,98822.91
2023-03-06T15:31:45.653Z,98811.03
2023-03-06T15:34:47.956Z,98821.09
2023-03-06T15:37:50.525Z,98826.53
2023-03-06T15:41:01.433Z,98823.53
2023-03-06T15:44:11.267Z,98820.16
2023-03-06T15:47:13.436Z,98813.44
2023-03-06T15:50:26.174Z,98823.16
2023-03-06T15:53:28.832Z,98809.47
2023-03-06T15:56:35.357Z,98815.94
2023-03-06T15:59:43.203Z,98804.91
2023-03-06T16:02:45.777Z,98822.88
2023-03-06T16:05:48.119Z,98817.84
2023-03-06T16:08:53.641Z,98821.28
2023-03-06T16:11:55.817Z,98818.03
2023-03-06T16:15:01.929Z,98821.97
2023-03-06T16:18:05.337Z,98820.41
2023-03-06T16:21:08.134Z,98819.69
2023-03-06T16:24:11.977Z,98809.16
2023-03-06T16:27:23.607Z,98816.31
2023-03-06T16:30:29.569Z,98821.34
2023-03-06T16:33:32.066Z,98812.25
2023-03-06T16:36:35.974Z,98811.50
2023-03-06T16:39:38.802Z,98809.94
2023-03-06T16:42:41.125Z,98812.37
2023-03-06T16:45:43.714Z,98807.38
2023-03-06T16:48:46.923Z,98814.91
2023-03-06T16:51:50.929Z,98807.84
2023-03-06T16:54:53.196Z,98807.13
2023-03-06T16:57:55.981Z,98811.81
2023-03-06T17:00:58.288Z,98810.69
2023-03-06T17:04:01.003Z,98806.59
2023-03-06T17:07:03.948Z,98806.59
2023-03-06T17:10:09.243Z,98814.59
2023-03-06T17:13:12.324Z,98817.13
2023-03-06T17:16:18.846Z,98826.94
2023-03-06T17:19:21.260Z,98831.34
2023-03-06T17:22:25.010Z,98835.87
2023-03-06T17:25:27.367Z,98839.09
2023-03-06T17:28:29.883Z,98845.28
2023-03-06T17:31:32.424Z,98846.59
2023-03-06T17:34:35.133Z,98850.19
2023-03-06T17:37:37.892Z,98862.34
2023-03-06T17:40:40.653Z,98877.41
2023-03-06T17:43:43.462Z,98873.78
2023-03-06T17:46:46.517Z,98869.47
2023-03-06T17:49:49.399Z,98879.66
2023-03-06T17:52:52.281Z,98873.87
2023-03-06T17:55:56.347Z,98865.87
2023-03-06T17:59:00.504Z,98875.88
2023-03-06T18:02:03.780Z,98866.66
2023-03-06T18:05:07.013Z,98876.09
2023-03-06T18:08:10.944Z,98886.91
2023-03-06T18:11:14.602Z,98884.88
2023-03-06T18:14:17.233Z,98887.91
2023-03-06T18:17:19.887Z,98891.88
2023-03-06T18:20:23.139Z,98880.81
2023-03-06T18:23:27.282Z,98876.72
2023-03-06T18:26:30.602Z,98877.84
2023-03-06T18:29:34.078Z,98870.47
2023-03-06T18:32:36.817Z,98864.53
2023-03-06T18:35:39.926Z,98861.66
2023-03-06T18:38:44.541Z,98861.94
2023-03-06T18:41:48.348Z,98861.28
2023-03-06T18:44:51.364Z,98858.97
2023-03-06T18:47:55.476Z,98861.88
2023-03-06T18:51:07.721Z,98863.13
2023-03-06T18:54:11.805Z,98868.44
2023-03-06T18:57:14.751Z,98862.66
2023-03-06T19:00:18.455Z,98864.41
2023-03-06T19:03:21.800Z,98868.62
2023-03-06T19:06:25.435Z,98876.41
2023-03-06T19:09:29.397Z,98876.22
2023-03-06T19:12:34.432Z,98872.84
2023-03-06T19:15:49.431Z,98873.59
2023-03-06T19:18:53.336Z,98870.03
2023-03-06T19:22:00.495Z,98875.28
2023-03-06T19:25:03.978Z,98875.84
2023-03-06T19:28:07.343Z,98885.09
2023-03-06T19:31:16.213Z,98874.53
2023-03-06T19:34:19.909Z,98879.97
2023-03-06T19:37:22.811Z,98879.75
2023-03-06T19:40:26.193Z,98871.91
2023-03-06T19:43:30.310Z,98877.41
2023-03-06T19:46:35.181Z,98882.59
2023-03-06T19:49:39.001Z,98888.03
2023-03-06T19:52:43.350Z,98894.22
2023-03-06T19:55:48.696Z,98891.03
2023-03-06T19:58:54.777Z,98878.09
2023-03-06T20:01:58.088Z,98883.91
2023-03-06T20:05:01.315Z,98891.06
2023-03-06T20:08:05.834Z,98892.91
2023-03-06T20:11:16.451Z,98894.88
2023-03-06T20:14:22.008Z,98896.56
2023-03-06T20:17:27.195Z,98902.81
2023-03-06T20:20:30.291Z,98903.97
2023-03-06T20:23:34.921Z,98896.28
2023-03-06T20:26:39.619Z,98909.56
2023-03-06T20:29:46.328Z,98915.66
2023-03-06T20:32:52.240Z,98913.13
2023-03-06T20:35:55.960Z,98913.88
2023-03-06T20:39:00.868Z,98926.06
2023-03-06T20:42:04.866Z,98933.75
2023-03-06T20:45:08.480Z,98926.06
2023-03-06T20:48:11.012Z,98923.63
2023-03-06T20:51:20.763Z,98933.94
2023-03-06T20:54:23.875Z,98924.53
2023-03-06T20:57:26.791Z,98922.12
2023-03-06T21:00:29.697Z,98924.06
2023-03-06T21:03:32.866Z,98922.50
2023-03-06T21:06:35.504Z,98923.41
2023-03-06T21:09:39.826Z,98926.63
2023-03-06T21:12:42.535Z,98920.44
2023-03-06T21:15:47.617Z,98925.59
2023-03-06T21:18:50.302Z,98925.84
2023-03-06T21:21:52.290Z,98930.25
2023-03-06T21:24:54.364Z,98931.09
2023-03-06T21:27:56.956Z,98931.03
2023-03-06T21:31:03.010Z,98928.28
2023-03-06T21:34:06.425Z,98935.31
2023-03-06T21:37:08.647Z,98934.47
2023-03-06T21:40:11.613Z,98934.66
2023-03-06T21:43:15.829Z,98931.47
2023-03-06T21:46:17.938Z,98932.59
2023-03-06T21:49:23.018Z,98944.84
2023-03-06T21:52:26.503Z,98950.16
2023-03-06T21:55:28.867Z,98947.00
2023-03-06T21:58:31.102Z,98955.03
2023-03-06T22:01:33.160Z,98958.78
2023-03-06T22:04:35.212Z,98950.22
2023-03-06T22:07:38.432Z,98953.72
2023-03-06T22:10:41.537Z,98957.25
2023-03-06T22:13:44.637Z,98954.91
2023-03-06T22:16:46.626Z,98962.84
2023-03-06T22:19:49.137Z,98964.06
2023-03-06T22:22:51.484Z,98955.44
2023-03-06T22:25:53.554Z,98960.00
2023-03-06T22:28:56.159Z,98958.31
2023-03-06T22:31:58.388Z,98954.00
2023-03-06T22:35:00.516Z,98954.84
2023-03-06T22:38:04.635Z,98955.31
2023-03-06T22:41:07.836Z,98959.59
2023-03-06T22:44:16.610Z,98959.03
2023-03-06T22:47:18.737Z,98955.66
2023-03-06T22:50:20.805Z,98958.44
2023-03-06T22:53:22.925Z,98954.13
2023-03-06T22:56:25.158Z,98964.44
2023-03-06T22:59:27.173Z,98966.13
2023-03-06T23:02:34.684Z,98952.78
2023-03-06T23:05:41.907Z,98954.50
2023-03-06T23:08:48.269Z,98953.53
2023-03-06T23:11:50.559Z,98945.78
2023-03-06T23:14:52.792Z,98949.06
2023-03-06T23:17:55.270Z,98948.25
2023-03-06T23:20:57.843Z,98959.56
2023-03-06T23:23:59.919Z,98954.97
2023-03-06T23:27:02.003Z,98950.75
2023-03-06T23:30:09.154Z,98951.69
2023-03-06T23:33:11.402Z,98957.84
2023-03-06T23:36:15.788Z,98955.41
2023-03-06T23:39:17.854Z,98971.69
2023-03-06T23:42:20.144Z,98966.47
2023-03-06T23:45:22.312Z,98962.91
2023-03-06T23:48:24.773Z,98964.50
2023-03-06T23:51:27.102Z,98971.69
2023-03-06T23:54:29.240Z,98973.38
2023-03-06T23:57:31.472Z,98974.31
